Time,TemperatureF,DewpointF,PressureIn,WindDirection,WindDirectionDegrees,WindSpeedMPH,WindSpeedGustMPH,Humidity,HourlyPrecipIn,Conditions,Clouds,dailyrainin,SolarRadiationWatts/m^2,SoftwareType,DateUTC
2014-02-13 00:22:00,20.0,19.0,-100.00,NNW,341,3.0,4.0,94,0.00,,,0.34,0.000000,,2014-02-13 07:22:00,
2014-02-13 00:32:00,20.0,19.0,-100.00,NNW,341,3.0,4.0,94,0.00,,,0.34,0.000000,,2014-02-13 07:32:00,
2014-02-13 00:42:00,20.0,19.0,-100.00,NNW,341,3.0,4.0,94,0.00,,,0.34,0.000000,,2014-02-13 07:42:00,
2014-02-13 00:53:00,20.0,19.0,-100.00,NNW,341,3.0,4.0,94,0.00,,,0.34,0.000000,,2014-02-13 07:53:00,
2014-02-13 01:22:00,21.0,20.0,-100.00,NNE,13,3.0,5.0,94,0.00,,,0.34,0.000000,,2014-02-13 08:22:00,
2014-02-13 01:32:00,21.0,20.0,-100.00,NNE,13,3.0,5.0,94,0.00,,,0.34,0.000000,,2014-02-13 08:32:00,
2014-02-13 01:42:00,21.0,20.0,-100.00,NNE,13,3.0,5.0,94,0.00,,,0.34,0.000000,,2014-02-13 08:42:00,
2014-02-13 01:52:00,21.0,20.0,-100.00,NNE,13,3.0,5.0,94,0.00,,,0.34,0.000000,,2014-02-13 08:52:00,
2014-02-13 02:22:00,21.0,20.0,-100.00,NNW,337,3.0,6.0,94,0.00,,,0.34,0.000000,,2014-02-13 09:22:00,
2014-02-13 02:33:00,21.0,20.0,-100.00,NNW,337,3.0,6.0,94,0.00,,,0.34,0.000000,,2014-02-13 09:33:00,
2014-02-13 02:43:00,21.0,20.0,-100.00,NNW,337,3.0,6.0,94,0.00,,,0.34,0.000000,,2014-02-13 09:43:00,
2014-02-13 02:53:00,21.0,20.0,-100.00,NNW,337,3.0,6.0,94,0.00,,,0.34,0.000000,,2014-02-13 09:53:00,
2014-02-13 03:23:00,21.0,20.0,-100.00,NNW,343,2.0,6.0,94,0.00,,,0.34,0.000000,,2014-02-13 10:23:00,
2014-02-13 03:33:00,21.0,20.0,-100.00,NNW,343,2.0,6.0,94,0.00,,,0.34,0.000000,,2014-02-13 10:33:00,
2014-02-13 03:43:00,21.0,20.0,-100.00,NNW,343,2.0,6.0,94,0.00,,,0.34,0.000000,,2014-02-13 10:43:00,
2014-02-13 03:52:00,21.0,20.0,-100.00,NNW,343,2.0,6.0,94,0.00,,,0.34,0.000000,,2014-02-13 10:52:00,
2014-02-13 04:22:00,23.0,22.0,-100.00,WNW,303,3.0,8.0,95,0.00,,,0.34,0.000000,,2014-02-13 11:22:00,
2014-02-13 04:33:00,23.0,22.0,-100.00,WNW,303,3.0,8.0,95,0.00,,,0.34,0.000000,,2014-02-13 11:33:00,
2014-02-13 04:42:00,23.0,22.0,-100.00,WNW,303,3.0,8.0,95,0.00,,,0.34,0.000000,,2014-02-13 11:42:00,
2014-02-13 04:52:00,23.0,22.0,-100.00,WNW,303,3.0,8.0,95,0.00,,,0.34,0.000000,,2014-02-13 11:52:00,
2014-02-13 05:22:00,22.0,20.0,-100.00,North,1,3.0,7.0,93,0.00,,,0.34,0.000000,,2014-02-13 12:22:00,
2014-02-13 05:32:00,22.0,20.0,-100.00,North,1,3.0,7.0,93,0.00,,,0.34,0.000000,,2014-02-13 12:32:00,
2014-02-13 05:42:00,22.0,20.0,-100.00,North,1,3.0,7.0,93,0.00,,,0.34,0.000000,,2014-02-13 12:42:00,
2014-02-13 05:52:00,22.0,20.0,-100.00,North,1,3.0,7.0,93,0.00,,,0.34,0.000000,,2014-02-13 12:52:00,
2014-02-13 06:22:00,25.0,21.0,-100.00,West,275,6.0,13.0,86,0.00,,,0.34,0.000000,,2014-02-13 13:22:00,
2014-02-13 06:32:00,25.0,21.0,-100.00,West,275,6.0,13.0,86,0.00,,,0.34,0.000000,,2014-02-13 13:32:00,
2014-02-13 06:42:00,25.0,21.0,-100.00,West,275,6.0,13.0,86,0.00,,,0.34,0.000000,,2014-02-13 13:42:00,
2014-02-13 06:52:00,25.0,21.0,-100.00,West,275,6.0,13.0,86,0.00,,,0.34,0.000000,,2014-02-13 13:52:00,
2014-02-13 07:22:00,23.0,21.0,-100.00,NNE,15,4.0,14.0,91,0.00,,,0.34,0.000000,,2014-02-13 14:22:00,
2014-02-13 07:32:00,23.0,21.0,-100.00,NNE,15,4.0,14.0,91,0.00,,,0.34,0.000000,,2014-02-13 14:32:00,
2014-02-13 07:42:00,23.0,21.0,-100.00,NNE,15,4.0,14.0,91,0.00,,,0.34,0.000000,,2014-02-13 14:42:00,
2014-02-13 07:52:00,23.0,21.0,-100.00,NNE,15,4.0,14.0,91,0.00,,,0.34,0.000000,,2014-02-13 14:52:00,
2014-02-13 08:22:00,26.0,23.0,-100.00,SW,229,3.0,7.0,87,0.00,,,0.34,13.000000,,2014-02-13 15:22:00,
2014-02-13 08:34:00,26.0,23.0,-100.00,SW,229,3.0,7.0,87,0.00,,,0.34,13.000000,,2014-02-13 15:34:00,
2014-02-13 08:43:00,26.0,23.0,-100.00,SW,229,3.0,7.0,87,0.00,,,0.34,13.000000,,2014-02-13 15:43:00,
2014-02-13 08:53:00,26.0,23.0,-100.00,SW,229,3.0,7.0,87,0.00,,,0.34,13.000000,,2014-02-13 15:53:00,
2014-02-13 09:23:00,29.0,23.0,-100.00,West,272,6.0,17.0,79,0.00,,,-99.99,47.000000,,2014-02-13 16:23:00,
2014-02-13 09:33:00,29.0,23.0,-100.00,West,272,6.0,17.0,79,0.00,,,-99.99,47.000000,,2014-02-13 16:33:00,
2014-02-13 09:43:00,29.0,23.0,-100.00,West,272,6.0,17.0,79,0.00,,,-99.99,47.000000,,2014-02-13 16:43:00,
2014-02-13 09:52:00,29.0,23.0,-100.00,West,272,6.0,17.0,79,0.00,,,-99.99,47.000000,,2014-02-13 16:52:00,
2014-02-13 10:22:00,31.0,24.0,-100.00,WSW,242,11.0,21.0,74,0.00,,,0.34,81.000000,,2014-02-13 17:22:00,
2014-02-13 10:33:00,31.0,24.0,-100.00,WSW,242,11.0,21.0,74,0.00,,,0.34,81.000000,,2014-02-13 17:33:00,
2014-02-13 10:43:00,31.0,24.0,-100.00,WSW,242,11.0,21.0,74,0.00,,,0.34,81.000000,,2014-02-13 17:43:00,
2014-02-13 10:52:00,31.0,24.0,-100.00,WSW,242,11.0,21.0,74,0.00,,,0.34,81.000000,,2014-02-13 17:52:00,
2014-02-13 11:22:00,34.0,25.0,-100.00,West,274,10.0,28.0,69,0.04,,,0.31,282.000000,,2014-02-13 18:22:00,
2014-02-13 11:32:00,34.0,25.0,-100.00,West,274,10.0,28.0,69,0.04,,,0.31,282.000000,,2014-02-13 18:32:00,
2014-02-13 11:42:00,34.0,25.0,-100.00,West,274,10.0,28.0,69,0.04,,,0.31,282.000000,,2014-02-13 18:42:00,
2014-02-13 11:53:00,34.0,25.0,-100.00,West,274,10.0,28.0,69,0.04,,,0.31,282.000000,,2014-02-13 18:53:00,
2014-02-13 12:23:00,35.0,24.0,-100.00,West,264,13.0,25.0,64,0.02,,,0.23,474.000000,,2014-02-13 19:23:00,
2014-02-13 12:33:00,35.0,24.0,-100.00,West,264,13.0,25.0,64,0.02,,,0.23,474.000000,,2014-02-13 19:33:00,
2014-02-13 12:42:00,35.0,24.0,-100.00,West,264,13.0,25.0,64,0.02,,,0.23,474.000000,,2014-02-13 19:42:00,
2014-02-13 12:52:00,35.0,24.0,-100.00,West,264,13.0,25.0,64,0.02,,,0.23,474.000000,,2014-02-13 19:52:00,
2014-02-13 13:22:00,38.0,25.0,-100.00,WSW,256,12.0,23.0,58,0.00,,,0.10,572.000000,,2014-02-13 20:22:00,
2014-02-13 13:32:00,38.0,25.0,-100.00,WSW,256,12.0,23.0,58,0.00,,,0.10,572.000000,,2014-02-13 20:32:00,
2014-02-13 13:42:00,38.0,25.0,-100.00,WSW,256,12.0,23.0,58,0.00,,,0.10,572.000000,,2014-02-13 20:42:00,
2014-02-13 13:52:00,38.0,25.0,-100.00,WSW,256,12.0,23.0,58,0.00,,,0.10,572.000000,,2014-02-13 20:52:00,
2014-02-13 14:22:00,33.0,24.0,-100.00,WSW,256,13.0,25.0,68,0.00,,,0.06,560.000000,,2014-02-13 21:22:00,
2014-02-13 14:33:00,33.0,24.0,-100.00,WSW,256,13.0,25.0,68,0.00,,,0.06,560.000000,,2014-02-13 21:33:00,
2014-02-13 14:43:00,33.0,24.0,-100.00,WSW,256,13.0,25.0,68,0.00,,,0.06,560.000000,,2014-02-13 21:43:00,
2014-02-13 14:54:00,33.0,24.0,-100.00,WSW,256,13.0,25.0,68,0.00,,,0.06,560.000000,,2014-02-13 21:54:00,
2014-02-13 15:23:00,34.0,22.0,-100.00,West,264,13.0,26.0,60,0.00,,,0.06,433.000000,,2014-02-13 22:23:00,
2014-02-13 15:33:00,34.0,22.0,-100.00,West,264,13.0,26.0,60,0.00,,,0.06,433.000000,,2014-02-13 22:33:00,
2014-02-13 15:43:00,34.0,22.0,-100.00,West,264,13.0,26.0,60,0.00,,,0.06,433.000000,,2014-02-13 22:43:00,
2014-02-13 15:53:00,34.0,22.0,-100.00,West,264,13.0,26.0,60,0.00,,,0.06,433.000000,,2014-02-13 22:53:00,
2014-02-13 16:22:00,32.0,22.0,-100.00,WNW,297,10.0,24.0,65,0.00,,,0.06,340.000000,,2014-02-13 23:22:00,
2014-02-13 16:33:00,32.0,22.0,-100.00,WNW,297,10.0,24.0,65,0.00,,,0.06,340.000000,,2014-02-13 23:33:00,
2014-02-13 16:43:00,32.0,22.0,-100.00,WNW,297,10.0,24.0,65,0.00,,,0.06,340.000000,,2014-02-13 23:43:00,
2014-02-13 16:53:00,32.0,22.0,-100.00,WNW,297,10.0,24.0,65,0.00,,,0.06,340.000000,,2014-02-13 23:53:00,
2014-02-13 17:22:00,28.0,24.0,-100.00,WNW,289,8.0,23.0,83,0.00,,,0.06,90.000000,,2014-02-14 00:22:00,
2014-02-13 17:32:00,28.0,24.0,-100.00,WNW,289,8.0,23.0,83,0.00,,,0.06,90.000000,,2014-02-14 00:32:00,
2014-02-13 17:42:00,28.0,24.0,-100.00,WNW,289,8.0,23.0,83,0.00,,,0.06,90.000000,,2014-02-14 00:42:00,
2014-02-13 17:52:00,28.0,24.0,-100.00,WNW,289,8.0,23.0,83,0.00,,,0.06,90.000000,,2014-02-14 00:52:00,
2014-02-13 18:22:00,25.0,23.0,-100.00,WNW,298,3.0,18.0,92,0.00,,,0.06,25.000000,,2014-02-14 01:22:00,
2014-02-13 18:32:00,25.0,23.0,-100.00,WNW,298,3.0,18.0,92,0.00,,,0.06,25.000000,,2014-02-14 01:32:00,
2014-02-13 18:42:00,25.0,23.0,-100.00,WNW,298,3.0,18.0,92,0.00,,,0.06,25.000000,,2014-02-14 01:42:00,
2014-02-13 18:52:00,25.0,23.0,-100.00,WNW,298,3.0,18.0,92,0.00,,,0.06,25.000000,,2014-02-14 01:52:00,
2014-02-13 19:22:00,25.0,21.0,-100.00,WNW,301,4.0,11.0,85,0.00,,,-99.99,0.000000,,2014-02-14 02:22:00,
2014-02-13 19:32:00,25.0,21.0,-100.00,WNW,301,4.0,11.0,85,0.00,,,-99.99,0.000000,,2014-02-14 02:32:00,
2014-02-13 19:42:00,25.0,21.0,-100.00,WNW,301,4.0,11.0,85,0.00,,,-99.99,0.000000,,2014-02-14 02:42:00,
2014-02-13 19:52:00,25.0,21.0,-100.00,WNW,301,4.0,11.0,85,0.00,,,-99.99,0.000000,,2014-02-14 02:52:00,
2014-02-13 20:22:00,26.0,18.0,-100.00,WNW,295,6.0,13.0,71,0.00,,,0.06,0.000000,,2014-02-14 03:22:00,
2014-02-13 20:33:00,26.0,18.0,-100.00,WNW,295,6.0,13.0,71,0.00,,,0.06,0.000000,,2014-02-14 03:33:00,
2014-02-13 20:44:00,26.0,18.0,-100.00,WNW,295,6.0,13.0,71,0.00,,,0.06,0.000000,,2014-02-14 03:44:00,
2014-02-13 20:54:00,26.0,18.0,-100.00,WNW,295,6.0,13.0,71,0.00,,,0.06,0.000000,,2014-02-14 03:54:00,
2014-02-13 21:23:00,25.0,20.0,-100.00,WSW,237,2.0,13.0,80,0.00,,,0.06,0.000000,,2014-02-14 04:23:00,
2014-02-13 21:33:00,25.0,20.0,-100.00,WSW,237,2.0,13.0,80,0.00,,,0.06,0.000000,,2014-02-14 04:33:00,
2014-02-13 21:43:00,25.0,20.0,-100.00,WSW,237,2.0,13.0,80,0.00,,,0.06,0.000000,,2014-02-14 04:43:00,
2014-02-13 21:52:00,25.0,20.0,-100.00,WSW,237,2.0,13.0,80,0.00,,,0.06,0.000000,,2014-02-14 04:52:00,
2014-02-13 22:22:00,23.0,22.0,-100.00,NNW,334,5.0,8.0,94,0.00,,,0.06,0.000000,,2014-02-14 05:22:00,
2014-02-13 22:43:00,23.0,22.0,-100.00,NNW,334,5.0,8.0,94,0.00,,,0.06,0.000000,,2014-02-14 05:43:00,
2014-02-13 22:52:00,23.0,22.0,-100.00,NNW,334,5.0,8.0,94,0.00,,,0.06,0.000000,,2014-02-14 05:52:00,